»·PEaware :: AAL3214 KLAX-KSLC

AAL3214 :: KLAX-KSLC

FLIGHT INFORMATION

Flight Status: Arrived
Operator:
American Airlines
More flights by this operator :: More flights under this callsign
Pilot: Andrew M. (139)
Aircraft: BOEING 737-800
(B738)
More flights by this aircraft type
Origin: KLAX Los Angeles Intl
United States
Destination: KSLC Salt Lake City Intl
United States
More flights between these airports :: More routes between these airports
Route: +ORCKA3 LAS Q70 BLIPP Q842 WINEN MLF DELTA5
File this flight plan on PilotEdge
Remarks: PBN / A1B1C1D1S1S2 NAV / RNVD1E2A1 REG / N806SB EET / KZLC0046 RMK / SIMBRIEF
Altitude:
(Current/Filed)
37,000ft
Speed:
(Current/Filed)
459kts
Departed: 07-Dec-18 10:06 PM
Arrived: 07-Dec-18 11:44 PM
Distance/Time
Traveled:
512nm/1:38
Distance/Time
To Go:
Arrived

Flight Plot

Page will automatically refresh every two minutes.

Flight plan parsing failed; only flown route is shown


Map Options




Map Legend


Flown Route
Filed Route
Departure Airport
Arrival Airport
Navaid (VOR, NDB)
Fix

Horizontal Profiles

Position Reports

Time Latitude Longitude Heading Altitude Ground
Speed
07-Dec-18 21:24 33.940123 -118.401350 307 118ft 0kts
07-Dec-18 21:25 33.940123 -118.401350 307 118ft 0kts
07-Dec-18 21:26 33.940123 -118.401350 307 118ft 0kts
07-Dec-18 21:27 33.940123 -118.401350 307 118ft 0kts
07-Dec-18 21:28 33.940123 -118.401350 307 118ft 0kts
07-Dec-18 21:29 33.940123 -118.401350 307 118ft 0kts
07-Dec-18 21:30 33.940123 -118.401350 307 118ft 0kts
07-Dec-18 21:31 33.940123 -118.401350 307 118ft 0kts
07-Dec-18 21:32 33.940123 -118.401350 307 118ft 0kts
07-Dec-18 21:33 33.940123 -118.401350 307 118ft 0kts
07-Dec-18 21:34 33.940123 -118.401350 307 118ft 0kts
07-Dec-18 21:35 33.940123 -118.401350 307 118ft 0kts
07-Dec-18 21:36 33.940123 -118.401350 307 118ft 0kts
07-Dec-18 21:37 33.940123 -118.401350 307 118ft 0kts
07-Dec-18 21:38 33.940123 -118.401350 307 118ft 0kts
07-Dec-18 21:39 33.940123 -118.401350 307 118ft 0kts
07-Dec-18 21:40 33.940123 -118.401350 307 118ft 0kts
07-Dec-18 21:41 33.940123 -118.401350 307 118ft 0kts
07-Dec-18 21:42 33.940123 -118.401350 307 118ft 0kts
07-Dec-18 21:43 33.940123 -118.401350 307 118ft 0kts
07-Dec-18 21:44 33.940123 -118.401350 307 118ft 0kts
07-Dec-18 21:45 33.940123 -118.401350 307 118ft 0kts
07-Dec-18 21:46 33.940123 -118.401350 307 118ft 0kts
07-Dec-18 21:47 33.940123 -118.401350 307 118ft 0kts
07-Dec-18 21:48 33.940123 -118.401350 307 118ft 0kts
07-Dec-18 21:49 33.940076 -118.400929 243 118ft 2kts
07-Dec-18 21:50 33.940447 -118.400690 170 117ft 0kts
07-Dec-18 21:51 33.940447 -118.400690 170 117ft 0kts
07-Dec-18 21:52 33.940447 -118.400690 170 117ft 0kts
07-Dec-18 21:53 33.940447 -118.400690 170 117ft 0kts
07-Dec-18 21:55 33.940439 -118.400689 170 117ft 0kts
07-Dec-18 21:56 33.939632 -118.400030 84 116ft 7kts
07-Dec-18 21:57 33.939082 -118.397311 90 111ft 10kts
07-Dec-18 21:58 33.939449 -118.393384 85 106ft 11kts
07-Dec-18 21:59 33.939820 -118.389572 83 103ft 12kts
07-Dec-18 22:00 33.940212 -118.385996 83 103ft 11kts
07-Dec-18 22:01 33.940628 -118.381875 84 99ft 12kts
07-Dec-18 22:02 33.940716 -118.380703 107 99ft 0kts
07-Dec-18 22:03 33.940716 -118.380703 107 99ft 0kts
07-Dec-18 22:04 33.940716 -118.380703 107 99ft 0kts
07-Dec-18 22:05 33.940226 -118.380180 177 99ft 6kts
07-Dec-18 22:06 33.938356 -118.394755 263 109ft 143kts
07-Dec-18 22:07 33.927943 -118.454343 249 1794ft 207kts
07-Dec-18 22:08 33.874845 -118.484515 157 3713ft 249kts
07-Dec-18 22:09 33.846869 -118.418865 73 6026ft 250kts
07-Dec-18 22:10 33.886279 -118.358052 30 8067ft 269kts
07-Dec-18 22:11 33.953613 -118.324790 18 10274ft 289kts
07-Dec-18 22:12 34.024501 -118.273602 49 12188ft 329kts
07-Dec-18 22:13 34.076726 -118.179309 51 14895ft 344kts
07-Dec-18 22:14 34.127063 -118.090180 51 17286ft 361kts
07-Dec-18 22:14 34.174451 -118.006085 51 19340ft 373kts
07-Dec-18 22:15 34.233671 -117.900698 50 21683ft 386kts
07-Dec-18 22:17 34.305758 -117.772030 50 24062ft 403kts
07-Dec-18 22:18 34.369958 -117.658655 47 25945ft 414kts
07-Dec-18 22:18 34.426440 -117.564516 47 27387ft 424kts
07-Dec-18 22:19 34.495587 -117.448528 47 28982ft 435kts
07-Dec-18 22:20 34.564765 -117.331985 47 30383ft 447kts
07-Dec-18 22:22 34.649990 -117.187860 47 32276ft 450kts
07-Dec-18 22:22 34.710639 -117.085076 47 33551ft 450kts
07-Dec-18 22:23 34.783814 -116.960428 46 35003ft 449kts
07-Dec-18 22:24 34.856524 -116.836269 47 36215ft 450kts
07-Dec-18 22:25 34.930640 -116.711820 40 37299ft 446kts
07-Dec-18 22:26 35.017455 -116.599504 39 37299ft 458kts
07-Dec-18 22:27 35.101950 -116.487824 39 37309ft 458kts
07-Dec-18 22:28 35.189786 -116.371431 39 37321ft 457kts
07-Dec-18 22:29 35.274847 -116.258221 39 37308ft 456kts
07-Dec-18 22:30 35.360531 -116.143984 39 37310ft 453kts
07-Dec-18 22:31 35.446074 -116.029627 39 37311ft 453kts
07-Dec-18 22:32 35.531714 -115.914646 39 37309ft 454kts
07-Dec-18 22:33 35.617017 -115.799732 39 37304ft 454kts
07-Dec-18 22:34 35.701368 -115.684349 39 37291ft 451kts
07-Dec-18 22:35 35.785193 -115.568816 39 37300ft 451kts
07-Dec-18 22:36 35.868785 -115.453197 39 37288ft 450kts
07-Dec-18 22:37 35.948564 -115.342527 40 37288ft 451kts
07-Dec-18 22:38 36.032190 -115.226158 40 37274ft 449kts
07-Dec-18 22:39 36.116342 -115.119118 31 37259ft 441kts
07-Dec-18 22:40 36.209595 -115.019752 32 37291ft 442kts
07-Dec-18 22:41 36.302338 -114.919529 32 37297ft 440kts
07-Dec-18 22:42 36.394817 -114.819604 32 37295ft 440kts
07-Dec-18 22:43 36.486627 -114.719746 33 37291ft 440kts
07-Dec-18 22:44 36.579073 -114.618768 32 37301ft 441kts
07-Dec-18 22:45 36.671505 -114.517839 32 37296ft 440kts
07-Dec-18 22:46 36.768052 -114.427080 19 37303ft 425kts
07-Dec-18 22:47 36.870197 -114.349935 24 37311ft 429kts
07-Dec-18 22:48 36.968772 -114.272219 24 37297ft 430kts
07-Dec-18 22:49 37.070347 -114.192021 24 37306ft 431kts
07-Dec-18 22:50 37.171047 -114.112251 24 37317ft 433kts
07-Dec-18 22:51 37.272753 -114.031387 24 37313ft 430kts
07-Dec-18 22:52 37.374217 -113.950512 24 37311ft 432kts
07-Dec-18 22:53 37.475662 -113.869381 24 37308ft 430kts
07-Dec-18 22:54 37.577484 -113.787725 24 37308ft 431kts
07-Dec-18 22:55 37.678922 -113.706122 24 37302ft 431kts
07-Dec-18 22:56 37.780061 -113.624417 24 37306ft 433kts
07-Dec-18 22:57 37.881687 -113.542061 24 37301ft 432kts
07-Dec-18 22:58 37.979305 -113.449506 34 37300ft 442kts
07-Dec-18 22:59 38.068701 -113.346701 34 37308ft 441kts
07-Dec-18 23:00 38.158646 -113.244254 34 37310ft 442kts
07-Dec-18 23:01 38.250187 -113.139700 34 37311ft 442kts
07-Dec-18 23:02 38.341212 -113.034643 37 37317ft 445kts
07-Dec-18 23:03 38.444929 -112.963873 12 37313ft 419kts
07-Dec-18 23:04 38.554623 -112.909643 15 37311ft 423kts
07-Dec-18 23:05 38.663471 -112.851467 15 37312ft 424kts
07-Dec-18 23:06 38.772418 -112.793000 15 37331ft 424kts
07-Dec-18 23:07 38.881019 -112.734538 16 37321ft 425kts
07-Dec-18 23:08 38.989456 -112.675902 16 37327ft 425kts
07-Dec-18 23:09 39.097876 -112.617053 16 37327ft 425kts
07-Dec-18 23:10 39.204884 -112.558832 16 37333ft 430kts
07-Dec-18 23:11 39.314404 -112.499768 10 37336ft 425kts
07-Dec-18 23:12 39.426133 -112.464822 8 35890ft 412kts
07-Dec-18 23:13 39.538809 -112.427309 8 32148ft 427kts
07-Dec-18 23:14 39.652702 -112.389263 8 29027ft 416kts
07-Dec-18 23:15 39.761372 -112.352853 9 26582ft 392kts
07-Dec-18 23:16 39.862528 -112.318810 10 24290ft 373kts
07-Dec-18 23:17 39.965206 -112.284197 10 21965ft 379kts
07-Dec-18 23:18 40.064402 -112.250643 10 19705ft 360kts
07-Dec-18 23:19 40.159218 -112.218637 11 17427ft 373kts
07-Dec-18 23:20 40.257044 -112.185376 11 15031ft 360kts
07-Dec-18 23:21 40.352216 -112.152961 11 14012ft 355kts
07-Dec-18 23:22 40.447059 -112.120635 11 13920ft 355kts
07-Dec-18 23:23 40.538750 -112.089390 11 12635ft 354kts
07-Dec-18 23:24 40.631683 -112.077600 359 11148ft 355kts
07-Dec-18 23:25 40.724164 -112.088880 352 11002ft 342kts
07-Dec-18 23:26 40.817504 -112.099790 352 10989ft 338kts
07-Dec-18 23:27 40.911202 -112.110902 352 8868ft 329kts
07-Dec-18 23:28 40.997102 -112.121017 352 8870ft 282kts
07-Dec-18 23:29 41.068382 -112.129462 351 8944ft 260kts
07-Dec-18 23:30 41.131478 -112.136951 351 9384ft 220kts
07-Dec-18 23:31 41.195219 -112.144658 351 9671ft 233kts
07-Dec-18 23:32 41.250881 -112.127516 77 9687ft 221kts
07-Dec-18 23:33 41.226997 -112.059246 129 9696ft 202kts
07-Dec-18 23:34 41.181321 -112.026768 171 9685ft 194kts
07-Dec-18 23:35 41.128686 -112.015623 177 9663ft 192kts
07-Dec-18 23:36 41.076759 -112.008522 178 9546ft 195kts
07-Dec-18 23:37 41.025509 -112.002351 178 8614ft 184kts
07-Dec-18 23:38 40.975545 -111.996506 178 7605ft 176kts
07-Dec-18 23:39 40.927663 -111.990939 177 6638ft 172kts
07-Dec-18 23:40 40.880837 -111.985481 175 5704ft 165kts
07-Dec-18 23:41 40.837405 -111.980421 174 4848ft 153kts
07-Dec-18 23:42 40.796533 -111.975655 175 4224ft 118kts
07-Dec-18 23:43 40.782749 -111.974157 183 4226ft 24kts
07-Dec-18 23:44 40.780287 -111.975891 344 4227ft 7kts
07-Dec-18 23:45 40.783235 -111.976284 355 4227ft 11kts
07-Dec-18 23:46 40.784443 -111.978283 336 4227ft 5kts
07-Dec-18 23:47 40.784855 -111.978426 350 4227ft 0kts
07-Dec-18 23:48 40.784855 -111.978426 350 4227ft 0kts
07-Dec-18 23:49 40.784855 -111.978426 350 4227ft 0kts

Navigation Log

Ident Type
Flight plan parsing failed, navigation log unavailable